createdAt,value
2022-08-12T00:00:03.148Z,2.77
2022-08-12T00:02:49.900Z,2.10
2022-08-12T00:05:35.842Z,2.20
2022-08-12T00:08:30.837Z,2.17
2022-08-12T00:11:22.682Z,2.63
2022-08-12T00:14:09.093Z,2.60
2022-08-12T00:16:56.306Z,1.70
2022-08-12T00:19:42.253Z,2.20
2022-08-12T00:22:28.872Z,2.43
2022-08-12T00:25:21.944Z,2.50
2022-08-12T00:28:28.282Z,2.07
2022-08-12T00:31:14.568Z,2.40
2022-08-12T00:34:00.487Z,1.97
2022-08-12T00:36:50.240Z,2.13
2022-08-12T00:39:37.100Z,2.27
2022-08-12T00:42:10.712Z,2.27
2022-08-12T00:44:45.480Z,2.57
2022-08-12T00:47:25.312Z,2.07
2022-08-12T00:49:55.413Z,2.50
2022-08-12T00:52:23.448Z,2.67
2022-08-12T00:54:58.857Z,2.50
2022-08-12T00:57:31.327Z,2.10
2022-08-12T01:00:10.614Z,2.30
2022-08-12T01:02:48.782Z,2.30
2022-08-12T01:05:41.673Z,1.97
2022-08-12T01:08:27.877Z,2.17
2022-08-12T01:11:14.678Z,1.90
2022-08-12T01:13:47.282Z,1.97
2022-08-12T01:16:18.174Z,1.80
2022-08-12T01:18:46.035Z,2.50
2022-08-12T01:21:26.600Z,2.17
2022-08-12T01:24:31.368Z,2.03
2022-08-12T01:27:01.264Z,1.67
2022-08-12T01:29:33.138Z,2.87
2022-08-12T01:32:05.499Z,2.50
2022-08-12T01:34:37.602Z,2.63
2022-08-12T01:37:09.794Z,2.13
2022-08-12T01:40:35.376Z,2.27
2022-08-12T01:42:46.125Z,2.20
2022-08-12T01:45:14.593Z,1.80
2022-08-12T01:48:05.414Z,2.00
2022-08-12T01:51:01.518Z,2.60
2022-08-12T01:53:58.657Z,2.50
2022-08-12T01:56:27.017Z,2.10
2022-08-12T01:59:16.962Z,2.33
2022-08-12T02:01:45.603Z,2.03
2022-08-12T02:05:05.063Z,2.20
2022-08-12T02:08:36.273Z,2.47
2022-08-12T02:11:22.862Z,1.57
2022-08-12T02:14:11.301Z,2.30
2022-08-12T02:16:56.770Z,3.03
2022-08-12T02:19:54.652Z,2.30
2022-08-12T02:22:31.453Z,2.70
2022-08-12T02:25:11.038Z,1.87
2022-08-12T02:27:47.617Z,2.27
2022-08-12T02:30:19.365Z,2.20
2022-08-12T02:32:50.944Z,2.70
2022-08-12T02:35:23.923Z,2.20
2022-08-12T02:37:56.288Z,2.70
2022-08-12T02:40:25.600Z,2.20
2022-08-12T02:42:55.740Z,2.03
2022-08-12T02:45:38.553Z,3.00
2022-08-12T02:48:10.517Z,2.30
2022-08-12T02:50:45.462Z,2.30
2022-08-12T02:53:13.459Z,2.77
2022-08-12T02:55:41.057Z,2.57
2022-08-12T02:58:12.423Z,2.63
2022-08-12T03:00:43.326Z,3.20
2022-08-12T03:03:13.866Z,2.50
2022-08-12T03:06:04.487Z,2.37
2022-08-12T03:08:35.869Z,2.80
2022-08-12T03:11:17.845Z,2.20
2022-08-12T03:13:53.654Z,2.83
2022-08-12T03:16:21.992Z,2.13
2022-08-12T03:18:51.397Z,2.60
2022-08-12T03:21:55.562Z,2.40
2022-08-12T03:24:09.209Z,2.60
2022-08-12T03:26:37.653Z,2.10
2022-08-12T03:29:06.954Z,2.40
2022-08-12T03:31:34.659Z,1.83
2022-08-12T03:34:12.622Z,2.60
2022-08-12T03:36:42.120Z,2.90
2022-08-12T03:39:37.027Z,2.90
2022-08-12T03:42:17.077Z,2.97
2022-08-12T03:45:20.435Z,2.60
2022-08-12T03:48:18.587Z,2.40
2022-08-12T03:51:06.181Z,2.47
2022-08-12T03:53:52.656Z,2.53
2022-08-12T03:56:38.841Z,2.70
2022-08-12T03:59:26.052Z,2.20
2022-08-12T04:01:57.576Z,2.43
2022-08-12T04:04:33.968Z,3.50
2022-08-12T04:07:03.256Z,3.30
2022-08-12T04:09:31.385Z,2.00
2022-08-12T04:12:17.237Z,2.57
2022-08-12T04:14:44.808Z,2.53
2022-08-12T04:17:13.171Z,2.93
2022-08-12T04:19:40.812Z,2.50
2022-08-12T04:22:09.480Z,3.63
2022-08-12T04:24:40.749Z,2.20
2022-08-12T04:27:12.598Z,3.03
2022-08-12T04:30:30.340Z,2.10
2022-08-12T04:32:28.537Z,3.40
2022-08-12T04:34:56.427Z,2.93
2022-08-12T04:37:23.967Z,3.37
2022-08-12T04:39:52.929Z,3.10
2022-08-12T04:42:21.094Z,2.90
2022-08-12T04:44:48.837Z,2.43
2022-08-12T04:47:17.201Z,2.50
2022-08-12T04:49:46.640Z,2.53
2022-08-12T04:52:14.123Z,2.83
2022-08-12T04:54:43.805Z,3.00
2022-08-12T04:57:11.390Z,2.30
2022-08-12T04:59:48.444Z,2.90
2022-08-12T05:02:21.635Z,3.20
2022-08-12T05:04:51.938Z,2.30
2022-08-12T05:07:20.539Z,2.83
2022-08-12T05:10:00.228Z,2.37
2022-08-12T05:12:38.091Z,2.53
2022-08-12T05:15:19.484Z,2.10
2022-08-12T05:17:55.955Z,2.37
2022-08-12T05:20:26.062Z,2.00
2022-08-12T05:23:23.872Z,2.63
2022-08-12T05:25:52.322Z,2.87
2022-08-12T05:28:19.693Z,3.07
2022-08-12T05:30:48.703Z,2.63
2022-08-12T05:33:16.035Z,2.60
2022-08-12T05:35:45.376Z,2.90
2022-08-12T05:38:33.187Z,2.10
2022-08-12T05:41:01.690Z,2.20
2022-08-12T05:43:29.692Z,2.17
2022-08-12T05:45:57.108Z,2.33
2022-08-12T05:48:24.592Z,2.70
2022-08-12T05:50:53.151Z,2.23
2022-08-12T05:53:20.508Z,2.90
2022-08-12T05:55:48.814Z,2.17
2022-08-12T05:58:16.191Z,2.20
2022-08-12T06:00:43.605Z,2.13
2022-08-12T06:03:12.016Z,2.17
2022-08-12T06:05:43.102Z,2.80
2022-08-12T06:08:22.312Z,2.27
2022-08-12T06:10:50.272Z,2.57
2022-08-12T06:13:28.409Z,2.37
2022-08-12T06:16:10.542Z,2.20
2022-08-12T06:18:39.995Z,2.37
2022-08-12T06:21:12.563Z,2.23
2022-08-12T06:23:42.692Z,1.97
2022-08-12T06:26:12.802Z,2.27
2022-08-12T06:28:43.777Z,2.30
2022-08-12T06:31:26.975Z,2.17
2022-08-12T06:34:52.921Z,2.57
2022-08-12T06:36:43.185Z,2.80
2022-08-12T06:39:15.223Z,2.73
2022-08-12T06:42:31.517Z,2.47
2022-08-12T06:44:50.413Z,2.13
2022-08-12T06:47:19.522Z,2.07
2022-08-12T06:49:48.481Z,2.47
2022-08-12T06:52:17.252Z,2.17
2022-08-12T06:54:45.719Z,2.40
2022-08-12T06:58:06.220Z,1.97
2022-08-12T07:00:00.510Z,2.20
2022-08-12T07:02:27.826Z,1.77
2022-08-12T07:04:55.230Z,1.90
2022-08-12T07:07:22.686Z,1.67
2022-08-12T07:10:06.559Z,1.93
2022-08-12T07:12:35.992Z,2.00
2022-08-12T07:15:03.714Z,2.07
2022-08-12T07:17:37.272Z,2.43
2022-08-12T07:20:09.851Z,2.60
2022-08-12T07:22:37.708Z,2.03
2022-08-12T07:25:24.051Z,2.30
2022-08-12T07:27:54.820Z,2.20
2022-08-12T07:30:23.261Z,2.20
2022-08-12T07:32:51.634Z,2.30
2022-08-12T07:35:20.276Z,2.30
2022-08-12T07:37:50.183Z,2.23
2022-08-12T07:40:18.732Z,3.00
2022-08-12T07:42:46.320Z,2.40
2022-08-12T07:45:14.585Z,2.00
2022-08-12T07:47:43.494Z,2.00
2022-08-12T07:50:13.484Z,2.20
2022-08-12T07:52:43.397Z,3.13
2022-08-12T07:55:11.728Z,2.17
2022-08-12T07:57:59.188Z,2.10
2022-08-12T08:00:28.059Z,2.10
2022-08-12T08:02:55.674Z,1.97
2022-08-12T08:05:25.801Z,1.70
2022-08-12T08:07:55.587Z,2.07
2022-08-12T08:10:23.191Z,1.93
2022-08-12T08:12:53.528Z,2.13
2022-08-12T08:15:38.662Z,2.00
2022-08-12T08:18:25.808Z,2.87
2022-08-12T08:20:53.521Z,1.63
2022-08-12T08:23:21.075Z,1.93
2022-08-12T08:25:50.086Z,2.10
2022-08-12T08:28:17.648Z,1.93
2022-08-12T08:30:47.923Z,1.70
2022-08-12T08:34:01.589Z,2.13
2022-08-12T08:36:06.852Z,2.33
2022-08-12T08:38:58.298Z,2.03
2022-08-12T08:42:16.789Z,2.20
2022-08-12T08:44:36.410Z,1.80
2022-08-12T08:47:05.651Z,1.80
2022-08-12T08:49:35.166Z,1.70
2022-08-12T08:52:08.378Z,2.33
2022-08-12T08:54:37.635Z,2.10
2022-08-12T08:57:08.063Z,1.80
2022-08-12T08:59:35.886Z,1.53
2022-08-12T09:02:03.565Z,1.70
2022-08-12T09:05:13.859Z,1.67
2022-08-12T09:10:09.325Z,1.77
2022-08-12T09:13:16.199Z,2.20
2022-08-12T09:15:56.079Z,1.70
2022-08-12T09:21:13.987Z,2.13
2022-08-12T09:23:59.062Z,2.20
2022-08-12T09:26:30.593Z,1.80
2022-08-12T09:29:00.402Z,1.60
2022-08-12T09:32:07.182Z,1.80
2022-08-12T09:34:26.467Z,1.77
2022-08-12T09:37:00.202Z,2.10
2022-08-12T09:40:04.395Z,1.70
2022-08-12T09:42:54.355Z,1.50
2022-08-12T09:46:11.466Z,1.40
2022-08-12T09:48:21.988Z,1.73
2022-08-12T09:50:52.113Z,1.43
2022-08-12T09:53:29.527Z,2.13
2022-08-12T09:56:57.301Z,1.70
2022-08-12T09:59:00.551Z,1.50
2022-08-12T10:01:35.244Z,1.60
2022-08-12T10:04:19.872Z,1.43
2022-08-12T10:06:53.923Z,1.57
2022-08-12T10:09:28.774Z,3.30
2022-08-12T10:12:32.918Z,1.80
2022-08-12T10:15:01.876Z,1.50
2022-08-12T10:17:29.790Z,1.70
2022-08-12T10:19:59.887Z,1.70
2022-08-12T10:22:36.597Z,1.60
2022-08-12T10:26:35.905Z,1.57
2022-08-12T10:28:33.740Z,1.43
2022-08-12T10:31:01.678Z,1.87
2022-08-12T10:33:54.816Z,1.70
2022-08-12T10:36:40.047Z,1.60
2022-08-12T10:40:00.114Z,1.30
2022-08-12T10:42:15.779Z,1.47
2022-08-12T10:44:48.446Z,1.70
2022-08-12T10:47:26.062Z,1.50
2022-08-12T10:50:28.518Z,1.57
2022-08-12T10:52:57.291Z,1.70
2022-08-12T10:55:26.064Z,1.43
2022-08-12T10:58:14.588Z,1.43
2022-08-12T11:00:55.543Z,1.70
2022-08-12T11:04:25.447Z,1.50
2022-08-12T11:07:07.086Z,1.77
2022-08-12T11:09:07.297Z,1.63
2022-08-12T11:12:35.332Z,1.33
2022-08-12T11:14:50.034Z,1.47
2022-08-12T11:17:43.877Z,1.57
2022-08-12T11:20:03.564Z,1.83
2022-08-12T11:22:32.332Z,1.43
2022-08-12T11:24:59.955Z,1.73
2022-08-12T11:27:29.528Z,1.70
2022-08-12T11:30:02.263Z,1.30
2022-08-12T11:32:38.618Z,1.63
2022-08-12T11:35:07.374Z,1.70
2022-08-12T11:37:57.887Z,1.17
2022-08-12T11:40:24.750Z,1.57
2022-08-12T11:42:53.141Z,1.20
2022-08-12T11:45:20.719Z,1.33
2022-08-12T11:47:49.282Z,1.13
2022-08-12T11:50:32.079Z,1.70
2022-08-12T11:52:59.964Z,1.30
2022-08-12T11:55:29.442Z,1.70
2022-08-12T11:58:51.087Z,1.40
2022-08-12T12:03:43.807Z,1.37
2022-08-12T12:06:16.937Z,1.80
2022-08-12T12:08:50.544Z,1.60
2022-08-12T12:11:18.884Z,1.13
2022-08-12T12:14:08.582Z,1.47
2022-08-12T12:16:38.326Z,1.40
2022-08-12T12:19:10.032Z,1.30
2022-08-12T12:21:47.311Z,1.63
2022-08-12T12:24:22.141Z,1.60
2022-08-12T12:27:00.931Z,1.47
2022-08-12T12:30:19.642Z,1.90
2022-08-12T12:32:29.074Z,1.43
2022-08-12T12:35:14.131Z,1.00
2022-08-12T12:38:03.615Z,1.47
2022-08-12T12:40:34.372Z,1.37
2022-08-12T12:43:05.188Z,1.63
2022-08-12T12:45:33.966Z,1.33
2022-08-12T12:48:06.065Z,1.50
2022-08-12T12:50:51.262Z,1.30
2022-08-12T12:54:06.358Z,1.13
2022-08-12T12:56:15.467Z,1.30
2022-08-12T12:58:43.900Z,1.70
2022-08-12T13:01:26.599Z,1.37
2022-08-12T13:04:01.862Z,1.20
2022-08-12T13:06:31.728Z,1.13
2022-08-12T13:09:02.680Z,1.20
2022-08-12T13:11:41.874Z,1.50
2022-08-12T13:14:28.764Z,1.23
2022-08-12T13:17:02.397Z,2.47
2022-08-12T13:19:38.769Z,1.67
2022-08-12T13:22:19.942Z,1.37
2022-08-12T13:24:55.736Z,1.63
2022-08-12T13:27:35.616Z,1.43
2022-08-12T13:30:13.037Z,1.43
2022-08-12T13:32:42.572Z,1.40
2022-08-12T13:35:20.161Z,1.23
2022-08-12T13:37:59.253Z,1.67
2022-08-12T13:40:34.617Z,1.30
2022-08-12T13:43:06.857Z,1.60
2022-08-12T13:45:35.679Z,2.10
2022-08-12T13:48:08.230Z,1.40
2022-08-12T13:50:39.045Z,1.63
2022-08-12T13:53:24.371Z,1.50
2022-08-12T13:55:59.585Z,1.80
2022-08-12T13:58:30.543Z,1.50
2022-08-12T14:00:59.510Z,1.47
2022-08-12T14:03:28.657Z,1.50
2022-08-12T14:06:15.797Z,1.67
2022-08-12T14:08:43.830Z,1.27
2022-08-12T14:11:13.234Z,1.53
2022-08-12T14:14:03.404Z,1.50
2022-08-12T14:16:46.815Z,0.97
2022-08-12T14:19:22.223Z,1.20
2022-08-12T14:21:59.847Z,1.20
2022-08-12T14:24:40.248Z,1.50
2022-08-12T14:27:10.392Z,1.20
2022-08-12T14:30:04.098Z,1.43
2022-08-12T14:32:34.608Z,1.30
2022-08-12T14:35:03.909Z,1.30
2022-08-12T14:37:56.508Z,1.00
2022-08-12T14:40:23.410Z,1.40
2022-08-12T14:42:57.105Z,1.17
2022-08-12T14:45:44.643Z,1.50
2022-08-12T14:48:13.595Z,2.10
2022-08-12T14:51:09.448Z,1.37
2022-08-12T14:59:57.588Z,1.30
2022-08-12T15:02:20.655Z,1.30
2022-08-12T15:04:54.695Z,1.10
2022-08-12T15:07:33.427Z,1.00
2022-08-12T15:10:12.192Z,1.20
2022-08-12T15:12:40.498Z,1.57
2022-08-12T15:15:10.268Z,1.10
2022-08-12T15:17:38.833Z,1.40
2022-08-12T15:20:32.010Z,1.00
2022-08-12T15:22:56.506Z,1.40
2022-08-12T15:25:28.681Z,1.30
2022-08-12T15:28:03.937Z,1.40
2022-08-12T15:30:34.017Z,1.27
2022-08-12T15:33:14.839Z,1.40
2022-08-12T15:35:52.166Z,1.77
2022-08-12T15:38:25.192Z,1.10
2022-08-12T15:40:54.276Z,1.30
2022-08-12T15:43:51.779Z,1.30
2022-08-12T15:46:15.261Z,2.10
2022-08-12T15:48:46.478Z,1.40
2022-08-12T15:51:57.450Z,1.50
2022-08-12T15:54:30.882Z,1.30
2022-08-12T15:57:05.647Z,1.50
2022-08-12T16:00:00.099Z,1.27
2022-08-12T16:02:21.332Z,1.40
2022-08-12T16:04:51.462Z,1.20
2022-08-12T16:07:25.903Z,1.67
2022-08-12T16:10:05.518Z,1.30
2022-08-12T16:12:42.296Z,1.30
2022-08-12T16:15:13.387Z,1.17
2022-08-12T16:18:15.320Z,1.20
2022-08-12T16:20:33.141Z,1.33
2022-08-12T16:23:36.597Z,1.03
2022-08-12T16:26:06.410Z,1.10
2022-08-12T16:28:42.006Z,1.33
2022-08-12T16:31:14.506Z,1.00
2022-08-12T16:33:59.515Z,0.70
2022-08-12T16:36:29.245Z,1.10
2022-08-12T16:38:56.847Z,1.10
2022-08-12T16:41:25.630Z,1.10
2022-08-12T16:43:55.753Z,0.90
2022-08-12T16:46:32.530Z,1.23
2022-08-12T16:49:08.805Z,1.00
2022-08-12T16:51:46.084Z,1.00
2022-08-12T16:54:16.441Z,1.20
2022-08-12T16:56:55.489Z,1.17
2022-08-12T16:59:53.634Z,0.93
2022-08-12T17:02:31.902Z,1.13
2022-08-12T17:05:03.184Z,1.17
2022-08-12T17:07:36.842Z,0.90
2022-08-12T17:10:09.549Z,0.90
2022-08-12T17:12:39.950Z,0.90
2022-08-12T17:15:51.233Z,0.87
2022-08-12T17:18:43.943Z,0.97
2022-08-12T17:20:47.491Z,0.90
2022-08-12T17:23:16.845Z,0.83
2022-08-12T17:25:46.461Z,0.70
2022-08-12T17:28:16.872Z,0.87
2022-08-12T17:30:45.190Z,1.10
2022-08-12T17:33:24.698Z,1.00
2022-08-12T17:35:53.289Z,0.77
2022-08-12T17:38:21.061Z,1.30
2022-08-12T17:40:48.993Z,1.03
2022-08-12T17:43:55.882Z,0.80
2022-08-12T17:46:12.468Z,0.90
2022-08-12T17:48:54.926Z,1.30
2022-08-12T17:51:24.387Z,1.30
2022-08-12T17:54:10.667Z,1.00
2022-08-12T17:56:43.280Z,0.97
2022-08-12T17:59:12.565Z,1.33
2022-08-12T18:01:44.091Z,0.93
2022-08-12T18:04:21.230Z,0.90
2022-08-12T18:06:52.931Z,1.20
2022-08-12T18:09:24.739Z,0.80
2022-08-12T18:12:24.575Z,1.30
2022-08-12T18:15:00.363Z,0.90
2022-08-12T18:17:29.091Z,0.90
2022-08-12T18:20:06.429Z,1.00
2022-08-12T18:22:36.329Z,0.93
2022-08-12T18:26:12.636Z,0.90
2022-08-12T18:28:15.063Z,1.20
2022-08-12T18:30:53.084Z,1.00
2022-08-12T18:33:26.734Z,1.03
2022-08-12T18:35:56.666Z,1.37
2022-08-12T18:38:26.909Z,0.87
2022-08-12T18:41:21.461Z,1.30
2022-08-12T18:44:02.964Z,1.13
2022-08-12T18:46:35.967Z,1.50
2022-08-12T18:49:18.350Z,1.80
2022-08-12T18:51:55.455Z,0.97
2022-08-12T18:54:35.474Z,1.10
2022-08-12T18:57:15.440Z,0.90
2022-08-12T19:00:00.076Z,1.27
2022-08-12T19:02:32.774Z,1.40
2022-08-12T19:05:08.209Z,1.00
2022-08-12T19:07:49.587Z,1.30
2022-08-12T19:10:25.675Z,1.70
2022-08-12T19:13:15.637Z,0.90
2022-08-12T19:15:48.767Z,1.00
2022-08-12T19:18:16.901Z,1.00
2022-08-12T19:20:48.011Z,0.97
2022-08-12T19:23:21.485Z,1.10
2022-08-12T19:26:00.982Z,1.00
2022-08-12T19:28:35.361Z,0.90
2022-08-12T19:31:56.092Z,1.63
2022-08-12T19:34:56.401Z,1.13
2022-08-12T19:37:27.480Z,1.07
2022-08-12T19:40:07.885Z,1.13
2022-08-12T19:42:42.721Z,1.00
2022-08-12T19:45:14.046Z,1.30
2022-08-12T19:47:44.729Z,1.10
2022-08-12T19:50:19.742Z,1.63
2022-08-12T19:52:51.127Z,1.70
2022-08-12T19:55:21.789Z,2.17
2022-08-12T19:58:02.604Z,1.03
2022-08-12T20:00:34.606Z,1.13
2022-08-12T20:03:04.231Z,1.30
2022-08-12T20:06:06.941Z,1.13
2022-08-12T20:08:34.148Z,1.07
2022-08-12T20:12:14.635Z,1.00
2022-08-12T20:14:00.226Z,1.10
2022-08-12T20:16:52.982Z,1.33
2022-08-12T20:19:18.089Z,0.80
2022-08-12T20:21:45.583Z,1.20
2022-08-12T20:24:14.215Z,1.10
2022-08-12T20:26:43.206Z,1.20
2022-08-12T20:29:12.006Z,1.27
2022-08-12T20:31:40.664Z,1.30
2022-08-12T20:34:09.378Z,1.10
2022-08-12T20:36:44.830Z,1.50
2022-08-12T20:39:35.832Z,1.17
2022-08-12T20:42:07.578Z,1.37
2022-08-12T20:44:40.164Z,1.57
2022-08-12T20:47:18.074Z,1.20
2022-08-12T20:49:54.870Z,1.30
2022-08-12T20:52:29.817Z,0.90
2022-08-12T20:54:58.153Z,1.10
2022-08-12T20:57:38.495Z,1.20
2022-08-12T21:00:22.697Z,1.77
2022-08-12T21:03:15.919Z,1.00
2022-08-12T21:06:13.687Z,1.20
2022-08-12T21:08:42.808Z,1.20
2022-08-12T21:11:10.386Z,1.27
2022-08-12T21:13:41.898Z,1.77
2022-08-12T21:16:10.390Z,1.00
2022-08-12T21:18:38.370Z,1.30
2022-08-12T21:21:06.672Z,1.30
2022-08-12T21:23:36.865Z,1.20
2022-08-12T21:26:11.270Z,0.97
2022-08-12T21:28:39.749Z,1.70
2022-08-12T21:32:35.031Z,1.50
2022-08-12T21:34:07.809Z,1.10
2022-08-12T21:36:39.906Z,1.73
2022-08-12T21:39:27.910Z,1.23
2022-08-12T21:42:06.939Z,1.43
2022-08-12T21:45:46.702Z,1.37
2022-08-12T21:47:25.779Z,1.20
2022-08-12T21:50:04.293Z,1.37
2022-08-12T21:52:42.197Z,1.10
2022-08-12T21:55:19.241Z,1.33
2022-08-12T21:57:54.632Z,1.40
2022-08-12T22:00:33.507Z,1.30
2022-08-12T22:04:03.591Z,1.50
2022-08-12T22:06:43.329Z,1.77
2022-08-12T22:09:15.623Z,1.30
2022-08-12T22:11:49.306Z,1.30
2022-08-12T22:14:24.930Z,1.30
2022-08-12T22:16:55.000Z,1.37
2022-08-12T22:19:24.030Z,1.30
2022-08-12T22:21:54.120Z,1.10
2022-08-12T22:24:27.248Z,1.20
2022-08-12T22:27:14.323Z,1.33
2022-08-12T22:30:16.883Z,1.60
2022-08-12T22:32:51.661Z,1.30
2022-08-12T22:35:56.000Z,1.30
2022-08-12T22:38:20.947Z,1.17
2022-08-12T22:40:50.794Z,1.40
2022-08-12T22:44:00.217Z,1.50
2022-08-12T22:46:53.077Z,1.50
2022-08-12T22:49:36.293Z,1.33
2022-08-12T22:52:12.569Z,1.23
2022-08-12T22:55:00.203Z,1.60
2022-08-12T22:57:53.521Z,1.60
2022-08-12T23:00:23.909Z,1.70
2022-08-12T23:02:58.336Z,1.60
2022-08-12T23:05:57.236Z,1.57
2022-08-12T23:08:18.880Z,1.50
2022-08-12T23:10:47.669Z,1.67
2022-08-12T23:13:38.720Z,1.10
2022-08-12T23:16:28.003Z,1.60
2022-08-12T23:19:01.524Z,2.10
2022-08-12T23:22:05.825Z,1.70
2022-08-12T23:24:35.337Z,1.03
2022-08-12T23:27:21.546Z,1.20
2022-08-12T23:30:05.924Z,1.43
2022-08-12T23:32:37.249Z,1.50
2022-08-12T23:35:06.880Z,1.50
2022-08-12T23:37:46.978Z,1.47
2022-08-12T23:40:22.540Z,2.13
2022-08-12T23:42:54.867Z,1.67
2022-08-12T23:45:30.852Z,1.40
2022-08-12T23:48:00.720Z,1.27
2022-08-12T23:50:33.536Z,1.80
2022-08-12T23:53:03.475Z,1.63
2022-08-12T23:55:40.936Z,1.67
2022-08-12T23:58:22.423Z,1.60
